Terminal Aerodrome Forecast
Issued by NWS San Angelo, TX

Home | Current Version | Previous Version | Text Only | Print | Product List | Glossary On
Versions: 1 2 3 4 5 6 7 8 9 10 11 12 13
000
FTUS44 KSJT 310500
TAFABI
TAF
KABI 310528Z 3106/0106 11010KT P6SM SCT030 BKN050
      TEMPO 3107/3110 OVC025
     FM311000 13010KT 5SM -RA BR OVC015
     FM311500 15012KT 2SM RA BR OVC007
     FM312200 16011KT 5SM BR VCSH OVC005
     FM010300 16010KT 2SM -DZ BR OVC003=

USA.gov is the U.S. government's official web portal to all federal, state and local government web resources and services.